sensor_id;sensor_type;location;lat;lon;timestamp;P1;durP1;ratioP1;P2;durP2;ratioP2
11384;SDS011;5747;56.748;13.882;2024-01-30T00:01:13;6.57;;;3.40;;
11384;SDS011;5747;56.748;13.882;2024-01-30T00:03:41;5.57;;;3.13;;
11384;SDS011;5747;56.748;13.882;2024-01-30T00:06:10;5.70;;;3.33;;
11384;SDS011;5747;56.748;13.882;2024-01-30T00:08:39;4.20;;;3.33;;
11384;SDS011;5747;56.748;13.882;2024-01-30T00:11:08;5.10;;;3.50;;
11384;SDS011;5747;56.748;13.882;2024-01-30T00:13:36;8.47;;;3.57;;
11384;SDS011;5747;56.748;13.882;2024-01-30T00:16:05;6.30;;;3.43;;
11384;SDS011;5747;56.748;13.882;2024-01-30T00:18:33;5.93;;;3.60;;
11384;SDS011;5747;56.748;13.882;2024-01-30T00:21:02;5.60;;;3.30;;
11384;SDS011;5747;56.748;13.882;2024-01-30T00:23:30;4.83;;;3.53;;
11384;SDS011;5747;56.748;13.882;2024-01-30T00:25:58;8.73;;;3.60;;
11384;SDS011;5747;56.748;13.882;2024-01-30T00:28:28;5.93;;;3.53;;
11384;SDS011;5747;56.748;13.882;2024-01-30T00:30:56;4.50;;;3.47;;
11384;SDS011;5747;56.748;13.882;2024-01-30T00:33:24;4.50;;;3.47;;
11384;SDS011;5747;56.748;13.882;2024-01-30T00:35:52;7.07;;;3.03;;
11384;SDS011;5747;56.748;13.882;2024-01-30T00:38:20;5.20;;;3.27;;
11384;SDS011;5747;56.748;13.882;2024-01-30T00:40:48;6.67;;;3.23;;
11384;SDS011;5747;56.748;13.882;2024-01-30T00:43:17;6.23;;;3.20;;
11384;SDS011;5747;56.748;13.882;2024-01-30T00:45:49;5.13;;;2.93;;
11384;SDS011;5747;56.748;13.882;2024-01-30T00:48:18;4.13;;;3.30;;
11384;SDS011;5747;56.748;13.882;2024-01-30T00:50:46;6.03;;;3.20;;
11384;SDS011;5747;56.748;13.882;2024-01-30T00:53:15;4.87;;;2.93;;
11384;SDS011;5747;56.748;13.882;2024-01-30T00:55:43;4.67;;;2.93;;
11384;SDS011;5747;56.748;13.882;2024-01-30T00:58:11;9.37;;;5.17;;
11384;SDS011;5747;56.748;13.882;2024-01-30T01:00:39;7.90;;;4.60;;
11384;SDS011;5747;56.748;13.882;2024-01-30T01:03:09;6.33;;;3.87;;
11384;SDS011;5747;56.748;13.882;2024-01-30T01:05:37;4.63;;;3.30;;
11384;SDS011;5747;56.748;13.882;2024-01-30T01:08:05;6.10;;;3.20;;
11384;SDS011;5747;56.748;13.882;2024-01-30T01:10:34;5.00;;;3.60;;
11384;SDS011;5747;56.748;13.882;2024-01-30T01:13:02;5.97;;;3.20;;
11384;SDS011;5747;56.748;13.882;2024-01-30T01:15:30;5.43;;;3.60;;
11384;SDS011;5747;56.748;13.882;2024-01-30T01:17:58;10.93;;;3.63;;
11384;SDS011;5747;56.748;13.882;2024-01-30T01:20:28;5.83;;;3.40;;
11384;SDS011;5747;56.748;13.882;2024-01-30T01:22:56;5.53;;;3.90;;
11384;SDS011;5747;56.748;13.882;2024-01-30T01:25:24;8.43;;;3.90;;
11384;SDS011;5747;56.748;13.882;2024-01-30T01:27:52;6.23;;;3.63;;
11384;SDS011;5747;56.748;13.882;2024-01-30T01:30:21;6.40;;;3.77;;
11384;SDS011;5747;56.748;13.882;2024-01-30T01:32:49;7.07;;;4.23;;
11384;SDS011;5747;56.748;13.882;2024-01-30T01:35:21;6.83;;;4.20;;
11384;SDS011;5747;56.748;13.882;2024-01-30T01:37:52;6.93;;;4.30;;
11384;SDS011;5747;56.748;13.882;2024-01-30T01:40:22;5.57;;;4.07;;
11384;SDS011;5747;56.748;13.882;2024-01-30T01:42:51;9.70;;;4.60;;
11384;SDS011;5747;56.748;13.882;2024-01-30T01:45:21;6.50;;;4.03;;
11384;SDS011;5747;56.748;13.882;2024-01-30T01:47:50;7.27;;;4.43;;
11384;SDS011;5747;56.748;13.882;2024-01-30T01:50:19;7.23;;;4.37;;
11384;SDS011;5747;56.748;13.882;2024-01-30T01:52:49;6.03;;;3.73;;
11384;SDS011;5747;56.748;13.882;2024-01-30T01:55:20;7.13;;;4.23;;
11384;SDS011;5747;56.748;13.882;2024-01-30T01:57:51;8.30;;;4.40;;
11384;SDS011;5747;56.748;13.882;2024-01-30T02:00:21;7.00;;;4.37;;
11384;SDS011;5747;56.748;13.882;2024-01-30T02:02:49;7.43;;;4.40;;
11384;SDS011;5747;56.748;13.882;2024-01-30T02:05:18;7.17;;;4.23;;
11384;SDS011;5747;56.748;13.882;2024-01-30T02:07:46;7.97;;;4.40;;
11384;SDS011;5747;56.748;13.882;2024-01-30T02:10:15;7.03;;;4.10;;
11384;SDS011;5747;56.748;13.882;2024-01-30T02:12:44;6.67;;;4.17;;
11384;SDS011;5747;56.748;13.882;2024-01-30T02:15:13;6.50;;;4.23;;
11384;SDS011;5747;56.748;13.882;2024-01-30T02:17:41;6.07;;;4.07;;
11384;SDS011;5747;56.748;13.882;2024-01-30T02:20:09;7.93;;;4.27;;
11384;SDS011;5747;56.748;13.882;2024-01-30T02:22:41;8.10;;;4.30;;
11384;SDS011;5747;56.748;13.882;2024-01-30T02:25:10;6.73;;;4.63;;
11384;SDS011;5747;56.748;13.882;2024-01-30T02:27:38;8.77;;;5.60;;
11384;SDS011;5747;56.748;13.882;2024-01-30T02:30:07;8.77;;;4.77;;
11384;SDS011;5747;56.748;13.882;2024-01-30T02:32:35;10.30;;;5.43;;
11384;SDS011;5747;56.748;13.882;2024-01-30T02:35:04;10.70;;;5.07;;
11384;SDS011;5747;56.748;13.882;2024-01-30T02:37:32;12.50;;;6.30;;
11384;SDS011;5747;56.748;13.882;2024-01-30T02:40:02;19.30;;;6.77;;
11384;SDS011;5747;56.748;13.882;2024-01-30T02:42:31;20.23;;;6.83;;
11384;SDS011;5747;56.748;13.882;2024-01-30T02:44:59;15.37;;;6.40;;
11384;SDS011;5747;56.748;13.882;2024-01-30T02:47:27;15.30;;;6.70;;
11384;SDS011;5747;56.748;13.882;2024-01-30T02:49:55;12.30;;;5.60;;
11384;SDS011;5747;56.748;13.882;2024-01-30T02:52:24;13.03;;;5.43;;
11384;SDS011;5747;56.748;13.882;2024-01-30T02:54:52;14.70;;;5.80;;
11384;SDS011;5747;56.748;13.882;2024-01-30T02:57:21;21.63;;;7.60;;
11384;SDS011;5747;56.748;13.882;2024-01-30T02:59:49;18.53;;;7.03;;
11384;SDS011;5747;56.748;13.882;2024-01-30T03:02:18;16.97;;;6.70;;
11384;SDS011;5747;56.748;13.882;2024-01-30T03:04:46;15.80;;;6.50;;
11384;SDS011;5747;56.748;13.882;2024-01-30T03:07:14;13.73;;;6.30;;
11384;SDS011;5747;56.748;13.882;2024-01-30T03:09:42;22.23;;;7.33;;
11384;SDS011;5747;56.748;13.882;2024-01-30T03:12:11;20.00;;;6.37;;
11384;SDS011;5747;56.748;13.882;2024-01-30T03:14:40;17.77;;;6.80;;
11384;SDS011;5747;56.748;13.882;2024-01-30T03:17:09;25.83;;;6.63;;
11384;SDS011;5747;56.748;13.882;2024-01-30T03:19:37;23.17;;;6.67;;
11384;SDS011;5747;56.748;13.882;2024-01-30T03:22:05;24.00;;;7.10;;
11384;SDS011;5747;56.748;13.882;2024-01-30T03:24:33;23.43;;;6.97;;
11384;SDS011;5747;56.748;13.882;2024-01-30T03:27:01;21.97;;;7.13;;
11384;SDS011;5747;56.748;13.882;2024-01-30T03:29:30;25.00;;;6.70;;
11384;SDS011;5747;56.748;13.882;2024-01-30T03:31:59;19.07;;;6.63;;
11384;SDS011;5747;56.748;13.882;2024-01-30T03:34:27;19.70;;;7.20;;
11384;SDS011;5747;56.748;13.882;2024-01-30T03:36:55;29.03;;;7.53;;
11384;SDS011;5747;56.748;13.882;2024-01-30T03:39:24;23.07;;;7.50;;
11384;SDS011;5747;56.748;13.882;2024-01-30T03:41:52;29.87;;;8.13;;
11384;SDS011;5747;56.748;13.882;2024-01-30T03:44:20;24.73;;;7.90;;
11384;SDS011;5747;56.748;13.882;2024-01-30T03:46:48;24.33;;;7.10;;
11384;SDS011;5747;56.748;13.882;2024-01-30T03:49:18;21.90;;;7.77;;
11384;SDS011;5747;56.748;13.882;2024-01-30T03:51:46;37.27;;;8.97;;
11384;SDS011;5747;56.748;13.882;2024-01-30T03:54:15;29.30;;;8.60;;
11384;SDS011;5747;56.748;13.882;2024-01-30T03:56:43;26.90;;;8.03;;
11384;SDS011;5747;56.748;13.882;2024-01-30T03:59:11;44.63;;;9.33;;
11384;SDS011;5747;56.748;13.882;2024-01-30T04:01:39;30.30;;;8.03;;
11384;SDS011;5747;56.748;13.882;2024-01-30T04:04:08;25.47;;;7.80;;
11384;SDS011;5747;56.748;13.882;2024-01-30T04:06:37;28.33;;;7.67;;
11384;SDS011;5747;56.748;13.882;2024-01-30T04:09:05;41.17;;;10.10;;
11384;SDS011;5747;56.748;13.882;2024-01-30T04:11:33;36.03;;;9.00;;
11384;SDS011;5747;56.748;13.882;2024-01-30T04:14:02;31.73;;;8.33;;
11384;SDS011;5747;56.748;13.882;2024-01-30T04:16:30;30.30;;;8.60;;
11384;SDS011;5747;56.748;13.882;2024-01-30T04:18:58;20.30;;;6.90;;
11384;SDS011;5747;56.748;13.882;2024-01-30T04:21:27;35.17;;;9.10;;
11384;SDS011;5747;56.748;13.882;2024-01-30T04:23:56;46.17;;;8.47;;
11384;SDS011;5747;56.748;13.882;2024-01-30T04:26:24;27.90;;;8.13;;
11384;SDS011;5747;56.748;13.882;2024-01-30T04:28:53;29.73;;;8.00;;
11384;SDS011;5747;56.748;13.882;2024-01-30T04:31:21;33.37;;;9.73;;
11384;SDS011;5747;56.748;13.882;2024-01-30T04:33:49;40.63;;;8.40;;
11384;SDS011;5747;56.748;13.882;2024-01-30T04:36:17;49.47;;;8.43;;
11384;SDS011;5747;56.748;13.882;2024-01-30T04:38:45;34.03;;;7.70;;
11384;SDS011;5747;56.748;13.882;2024-01-30T04:41:18;35.03;;;8.20;;
11384;SDS011;5747;56.748;13.882;2024-01-30T04:43:46;39.67;;;8.70;;
11384;SDS011;5747;56.748;13.882;2024-01-30T04:46:14;41.47;;;8.50;;
11384;SDS011;5747;56.748;13.882;2024-01-30T04:48:42;37.80;;;8.70;;
11384;SDS011;5747;56.748;13.882;2024-01-30T04:51:10;35.53;;;8.33;;
11384;SDS011;5747;56.748;13.882;2024-01-30T04:53:38;35.87;;;8.43;;
11384;SDS011;5747;56.748;13.882;2024-01-30T04:56:07;31.87;;;8.47;;
11384;SDS011;5747;56.748;13.882;2024-01-30T04:58:36;45.10;;;8.20;;
11384;SDS011;5747;56.748;13.882;2024-01-30T05:01:04;41.60;;;8.17;;
11384;SDS011;5747;56.748;13.882;2024-01-30T05:03:33;24.53;;;7.63;;
11384;SDS011;5747;56.748;13.882;2024-01-30T05:06:01;34.37;;;8.00;;
11384;SDS011;5747;56.748;13.882;2024-01-30T05:08:30;44.87;;;8.07;;
11384;SDS011;5747;56.748;13.882;2024-01-30T05:10:59;32.20;;;7.77;;
11384;SDS011;5747;56.748;13.882;2024-01-30T05:13:30;49.80;;;8.63;;
11384;SDS011;5747;56.748;13.882;2024-01-30T05:15:59;23.83;;;7.83;;
11384;SDS011;5747;56.748;13.882;2024-01-30T05:18:29;38.60;;;7.77;;
11384;SDS011;5747;56.748;13.882;2024-01-30T05:20:58;29.80;;;7.80;;
11384;SDS011;5747;56.748;13.882;2024-01-30T05:23:26;35.03;;;7.97;;
11384;SDS011;5747;56.748;13.882;2024-01-30T05:25:54;41.17;;;7.73;;
11384;SDS011;5747;56.748;13.882;2024-01-30T05:28:22;47.63;;;8.47;;
11384;SDS011;5747;56.748;13.882;2024-01-30T05:30:50;35.40;;;8.13;;
11384;SDS011;5747;56.748;13.882;2024-01-30T05:33:20;29.47;;;7.10;;
11384;SDS011;5747;56.748;13.882;2024-01-30T05:35:48;46.90;;;9.00;;
11384;SDS011;5747;56.748;13.882;2024-01-30T05:38:16;35.20;;;8.13;;
11384;SDS011;5747;56.748;13.882;2024-01-30T05:40:44;32.93;;;7.70;;
11384;SDS011;5747;56.748;13.882;2024-01-30T05:43:13;45.67;;;8.50;;
11384;SDS011;5747;56.748;13.882;2024-01-30T05:45:41;41.37;;;8.00;;
11384;SDS011;5747;56.748;13.882;2024-01-30T05:48:09;44.77;;;7.60;;
11384;SDS011;5747;56.748;13.882;2024-01-30T05:50:39;42.50;;;7.77;;
11384;SDS011;5747;56.748;13.882;2024-01-30T05:53:07;31.23;;;6.80;;
11384;SDS011;5747;56.748;13.882;2024-01-30T05:55:35;38.10;;;7.37;;
11384;SDS011;5747;56.748;13.882;2024-01-30T05:58:03;48.43;;;9.03;;
11384;SDS011;5747;56.748;13.882;2024-01-30T06:00:32;38.53;;;7.67;;
11384;SDS011;5747;56.748;13.882;2024-01-30T06:03:00;35.27;;;8.43;;
11384;SDS011;5747;56.748;13.882;2024-01-30T06:05:29;40.53;;;8.10;;
11384;SDS011;5747;56.748;13.882;2024-01-30T06:07:59;40.57;;;8.87;;
11384;SDS011;5747;56.748;13.882;2024-01-30T06:10:27;41.13;;;9.10;;
11384;SDS011;5747;56.748;13.882;2024-01-30T06:12:55;49.97;;;9.47;;
11384;SDS011;5747;56.748;13.882;2024-01-30T06:15:23;48.63;;;10.07;;
11384;SDS011;5747;56.748;13.882;2024-01-30T06:17:52;35.87;;;8.13;;
11384;SDS011;5747;56.748;13.882;2024-01-30T06:20:20;50.93;;;8.40;;
11384;SDS011;5747;56.748;13.882;2024-01-30T06:22:49;57.13;;;9.00;;
11384;SDS011;5747;56.748;13.882;2024-01-30T06:25:18;35.70;;;8.30;;
11384;SDS011;5747;56.748;13.882;2024-01-30T06:27:47;59.67;;;9.90;;
11384;SDS011;5747;56.748;13.882;2024-01-30T06:30:15;47.40;;;9.40;;
11384;SDS011;5747;56.748;13.882;2024-01-30T06:32:43;114.27;;;11.37;;
11384;SDS011;5747;56.748;13.882;2024-01-30T06:35:11;95.63;;;10.20;;
11384;SDS011;5747;56.748;13.882;2024-01-30T06:37:39;76.90;;;10.23;;
11384;SDS011;5747;56.748;13.882;2024-01-30T06:40:08;39.70;;;8.37;;
11384;SDS011;5747;56.748;13.882;2024-01-30T06:42:38;52.13;;;10.17;;
11384;SDS011;5747;56.748;13.882;2024-01-30T06:45:07;57.80;;;9.30;;
11384;SDS011;5747;56.748;13.882;2024-01-30T06:47:35;63.67;;;9.20;;
11384;SDS011;5747;56.748;13.882;2024-01-30T06:50:04;59.63;;;8.93;;
11384;SDS011;5747;56.748;13.882;2024-01-30T06:52:33;57.43;;;9.37;;
11384;SDS011;5747;56.748;13.882;2024-01-30T06:55:01;26.47;;;8.83;;
11384;SDS011;5747;56.748;13.882;2024-01-30T06:57:29;76.03;;;10.73;;
11384;SDS011;5747;56.748;13.882;2024-01-30T06:59:59;66.57;;;10.17;;
11384;SDS011;5747;56.748;13.882;2024-01-30T07:02:28;56.17;;;9.93;;
11384;SDS011;5747;56.748;13.882;2024-01-30T07:04:56;57.73;;;12.07;;
11384;SDS011;5747;56.748;13.882;2024-01-30T07:07:24;47.93;;;11.60;;
11384;SDS011;5747;56.748;13.882;2024-01-30T07:09:53;50.60;;;12.67;;
11384;SDS011;5747;56.748;13.882;2024-01-30T07:12:23;63.30;;;12.67;;
11384;SDS011;5747;56.748;13.882;2024-01-30T07:14:52;63.73;;;12.60;;
11384;SDS011;5747;56.748;13.882;2024-01-30T07:17:24;51.40;;;11.57;;
11384;SDS011;5747;56.748;13.882;2024-01-30T07:19:52;51.70;;;11.93;;
11384;SDS011;5747;56.748;13.882;2024-01-30T07:22:20;40.80;;;11.37;;
11384;SDS011;5747;56.748;13.882;2024-01-30T07:24:49;64.07;;;12.63;;
11384;SDS011;5747;56.748;13.882;2024-01-30T07:27:18;39.40;;;10.97;;
11384;SDS011;5747;56.748;13.882;2024-01-30T07:29:48;47.57;;;12.20;;
11384;SDS011;5747;56.748;13.882;2024-01-30T07:32:16;57.17;;;12.03;;
11384;SDS011;5747;56.748;13.882;2024-01-30T07:34:46;49.33;;;11.80;;
11384;SDS011;5747;56.748;13.882;2024-01-30T07:37:32;44.83;;;11.50;;
11384;SDS011;5747;56.748;13.882;2024-01-30T07:40:01;52.57;;;11.27;;
11384;SDS011;5747;56.748;13.882;2024-01-30T07:42:30;55.23;;;11.93;;
11384;SDS011;5747;56.748;13.882;2024-01-30T07:44:58;45.73;;;11.87;;
11384;SDS011;5747;56.748;13.882;2024-01-30T07:47:27;42.73;;;11.00;;
11384;SDS011;5747;56.748;13.882;2024-01-30T07:49:57;56.67;;;12.83;;
11384;SDS011;5747;56.748;13.882;2024-01-30T07:52:25;49.10;;;12.10;;
11384;SDS011;5747;56.748;13.882;2024-01-30T07:54:53;54.23;;;11.23;;
11384;SDS011;5747;56.748;13.882;2024-01-30T07:57:22;56.67;;;12.03;;
11384;SDS011;5747;56.748;13.882;2024-01-30T07:59:50;52.80;;;11.13;;
11384;SDS011;5747;56.748;13.882;2024-01-30T08:02:18;50.17;;;11.43;;
11384;SDS011;5747;56.748;13.882;2024-01-30T08:04:46;49.77;;;11.83;;
11384;SDS011;5747;56.748;13.882;2024-01-30T08:07:17;47.07;;;12.00;;
11384;SDS011;5747;56.748;13.882;2024-01-30T08:09:46;48.07;;;11.47;;
11384;SDS011;5747;56.748;13.882;2024-01-30T08:12:14;50.20;;;11.50;;
11384;SDS011;5747;56.748;13.882;2024-01-30T08:14:42;44.13;;;11.43;;
11384;SDS011;5747;56.748;13.882;2024-01-30T08:17:10;48.60;;;12.00;;
11384;SDS011;5747;56.748;13.882;2024-01-30T08:19:38;52.23;;;12.17;;
11384;SDS011;5747;56.748;13.882;2024-01-30T08:22:06;51.63;;;11.60;;
11384;SDS011;5747;56.748;13.882;2024-01-30T08:24:36;56.77;;;12.20;;
11384;SDS011;5747;56.748;13.882;2024-01-30T08:27:06;54.37;;;12.23;;
11384;SDS011;5747;56.748;13.882;2024-01-30T08:29:36;49.90;;;11.30;;
11384;SDS011;5747;56.748;13.882;2024-01-30T08:32:04;44.43;;;11.60;;
11384;SDS011;5747;56.748;13.882;2024-01-30T08:34:33;49.07;;;12.30;;
11384;SDS011;5747;56.748;13.882;2024-01-30T08:37:02;53.23;;;12.07;;
11384;SDS011;5747;56.748;13.882;2024-01-30T08:39:30;47.93;;;12.23;;
11384;SDS011;5747;56.748;13.882;2024-01-30T08:42:00;48.10;;;11.83;;
11384;SDS011;5747;56.748;13.882;2024-01-30T08:44:28;51.87;;;12.97;;
11384;SDS011;5747;56.748;13.882;2024-01-30T08:46:56;43.43;;;11.13;;
11384;SDS011;5747;56.748;13.882;2024-01-30T08:49:26;39.57;;;11.73;;
11384;SDS011;5747;56.748;13.882;2024-01-30T08:51:57;45.60;;;11.93;;
11384;SDS011;5747;56.748;13.882;2024-01-30T08:54:25;39.60;;;11.40;;
11384;SDS011;5747;56.748;13.882;2024-01-30T08:56:53;42.60;;;11.30;;
11384;SDS011;5747;56.748;13.882;2024-01-30T08:59:24;41.70;;;11.87;;
11384;SDS011;5747;56.748;13.882;2024-01-30T09:01:52;40.20;;;11.60;;
11384;SDS011;5747;56.748;13.882;2024-01-30T09:04:36;49.27;;;12.83;;
11384;SDS011;5747;56.748;13.882;2024-01-30T09:07:05;52.07;;;12.70;;
11384;SDS011;5747;56.748;13.882;2024-01-30T09:09:37;48.90;;;12.27;;
11384;SDS011;5747;56.748;13.882;2024-01-30T09:12:07;45.20;;;12.80;;
11384;SDS011;5747;56.748;13.882;2024-01-30T09:14:38;46.73;;;12.50;;
11384;SDS011;5747;56.748;13.882;2024-01-30T09:17:07;42.00;;;12.67;;
11384;SDS011;5747;56.748;13.882;2024-01-30T09:19:35;49.37;;;12.37;;
11384;SDS011;5747;56.748;13.882;2024-01-30T09:22:04;50.40;;;13.03;;
11384;SDS011;5747;56.748;13.882;2024-01-30T09:24:32;47.17;;;13.93;;
11384;SDS011;5747;56.748;13.882;2024-01-30T09:27:01;50.07;;;13.43;;
11384;SDS011;5747;56.748;13.882;2024-01-30T09:29:29;43.43;;;12.90;;
11384;SDS011;5747;56.748;13.882;2024-01-30T09:31:59;46.37;;;13.13;;
11384;SDS011;5747;56.748;13.882;2024-01-30T09:34:27;41.07;;;12.67;;
11384;SDS011;5747;56.748;13.882;2024-01-30T09:36:55;43.20;;;12.80;;
11384;SDS011;5747;56.748;13.882;2024-01-30T09:39:23;41.23;;;12.53;;
11384;SDS011;5747;56.748;13.882;2024-01-30T09:41:53;40.77;;;12.27;;
11384;SDS011;5747;56.748;13.882;2024-01-30T09:44:29;44.80;;;12.60;;
11384;SDS011;5747;56.748;13.882;2024-01-30T09:46:59;41.27;;;12.47;;
11384;SDS011;5747;56.748;13.882;2024-01-30T09:49:31;43.03;;;12.50;;
11384;SDS011;5747;56.748;13.882;2024-01-30T09:52:00;40.50;;;12.17;;
11384;SDS011;5747;56.748;13.882;2024-01-30T09:54:29;45.57;;;12.50;;
11384;SDS011;5747;56.748;13.882;2024-01-30T09:57:02;40.50;;;12.60;;
11384;SDS011;5747;56.748;13.882;2024-01-30T09:59:31;47.73;;;13.53;;
11384;SDS011;5747;56.748;13.882;2024-01-30T10:02:02;34.07;;;11.97;;
11384;SDS011;5747;56.748;13.882;2024-01-30T10:04:31;42.67;;;12.97;;
11384;SDS011;5747;56.748;13.882;2024-01-30T10:07:01;34.63;;;12.27;;
11384;SDS011;5747;56.748;13.882;2024-01-30T10:09:31;35.70;;;11.63;;
11384;SDS011;5747;56.748;13.882;2024-01-30T10:12:01;31.37;;;11.57;;
11384;SDS011;5747;56.748;13.882;2024-01-30T10:14:30;33.17;;;11.23;;
11384;SDS011;5747;56.748;13.882;2024-01-30T10:16:58;33.10;;;11.53;;
11384;SDS011;5747;56.748;13.882;2024-01-30T10:19:28;31.43;;;11.53;;
11384;SDS011;5747;56.748;13.882;2024-01-30T10:21:56;34.13;;;10.87;;
11384;SDS011;5747;56.748;13.882;2024-01-30T10:24:24;32.33;;;10.70;;
11384;SDS011;5747;56.748;13.882;2024-01-30T10:26:53;29.57;;;10.27;;
11384;SDS011;5747;56.748;13.882;2024-01-30T10:29:21;24.43;;;10.17;;
11384;SDS011;5747;56.748;13.882;2024-01-30T10:31:57;26.70;;;10.43;;
11384;SDS011;5747;56.748;13.882;2024-01-30T10:34:27;27.30;;;10.40;;
11384;SDS011;5747;56.748;13.882;2024-01-30T10:36:59;27.60;;;10.30;;
11384;SDS011;5747;56.748;13.882;2024-01-30T10:39:31;28.30;;;10.80;;
11384;SDS011;5747;56.748;13.882;2024-01-30T10:42:04;25.63;;;10.60;;
11384;SDS011;5747;56.748;13.882;2024-01-30T10:44:35;27.53;;;11.13;;
11384;SDS011;5747;56.748;13.882;2024-01-30T10:47:07;28.33;;;10.63;;
11384;SDS011;5747;56.748;13.882;2024-01-30T10:49:41;28.33;;;11.20;;
11384;SDS011;5747;56.748;13.882;2024-01-30T10:52:10;27.50;;;11.53;;
11384;SDS011;5747;56.748;13.882;2024-01-30T10:54:40;30.40;;;11.30;;
11384;SDS011;5747;56.748;13.882;2024-01-30T10:57:20;26.93;;;11.23;;
11384;SDS011;5747;56.748;13.882;2024-01-30T10:59:50;29.90;;;11.67;;
11384;SDS011;5747;56.748;13.882;2024-01-30T11:02:23;28.90;;;11.33;;
11384;SDS011;5747;56.748;13.882;2024-01-30T11:04:54;27.13;;;11.03;;
11384;SDS011;5747;56.748;13.882;2024-01-30T11:07:25;26.43;;;11.33;;
11384;SDS011;5747;56.748;13.882;2024-01-30T11:09:59;25.50;;;11.03;;
11384;SDS011;5747;56.748;13.882;2024-01-30T11:12:31;26.43;;;10.27;;
11384;SDS011;5747;56.748;13.882;2024-01-30T11:15:04;24.17;;;11.67;;
11384;SDS011;5747;56.748;13.882;2024-01-30T11:17:40;22.03;;;10.03;;
11384;SDS011;5747;56.748;13.882;2024-01-30T11:20:14;24.97;;;10.47;;
11384;SDS011;5747;56.748;13.882;2024-01-30T11:22:44;24.20;;;10.37;;
11384;SDS011;5747;56.748;13.882;2024-01-30T11:25:14;23.13;;;9.93;;
11384;SDS011;5747;56.748;13.882;2024-01-30T11:27:45;25.00;;;10.70;;
11384;SDS011;5747;56.748;13.882;2024-01-30T11:30:21;24.03;;;10.53;;
11384;SDS011;5747;56.748;13.882;2024-01-30T11:33:03;19.30;;;9.40;;
11384;SDS011;5747;56.748;13.882;2024-01-30T11:35:34;19.70;;;9.13;;
11384;SDS011;5747;56.748;13.882;2024-01-30T11:38:03;21.57;;;9.67;;
11384;SDS011;5747;56.748;13.882;2024-01-30T11:40:33;24.53;;;10.80;;
11384;SDS011;5747;56.748;13.882;2024-01-30T11:43:04;19.93;;;9.90;;
11384;SDS011;5747;56.748;13.882;2024-01-30T11:45:34;21.23;;;9.00;;
11384;SDS011;5747;56.748;13.882;2024-01-30T11:48:03;19.97;;;9.97;;
11384;SDS011;5747;56.748;13.882;2024-01-30T11:50:32;22.97;;;10.20;;
11384;SDS011;5747;56.748;13.882;2024-01-30T11:53:01;19.47;;;9.23;;
11384;SDS011;5747;56.748;13.882;2024-01-30T11:55:30;22.97;;;9.13;;
11384;SDS011;5747;56.748;13.882;2024-01-30T11:58:01;19.80;;;9.43;;
11384;SDS011;5747;56.748;13.882;2024-01-30T12:00:32;21.33;;;10.07;;
11384;SDS011;5747;56.748;13.882;2024-01-30T12:03:02;20.47;;;9.40;;
11384;SDS011;5747;56.748;13.882;2024-01-30T12:05:31;19.70;;;9.43;;
11384;SDS011;5747;56.748;13.882;2024-01-30T12:08:00;20.80;;;9.87;;
11384;SDS011;5747;56.748;13.882;2024-01-30T12:10:29;23.57;;;9.57;;
11384;SDS011;5747;56.748;13.882;2024-01-30T12:12:57;21.63;;;10.03;;
11384;SDS011;5747;56.748;13.882;2024-01-30T12:15:26;22.43;;;9.83;;
11384;SDS011;5747;56.748;13.882;2024-01-30T12:18:04;28.17;;;11.03;;
11384;SDS011;5747;56.748;13.882;2024-01-30T12:20:34;22.57;;;10.70;;
11384;SDS011;5747;56.748;13.882;2024-01-30T12:23:03;25.00;;;11.23;;
11384;SDS011;5747;56.748;13.882;2024-01-30T12:25:31;28.40;;;10.93;;
11384;SDS011;5747;56.748;13.882;2024-01-30T12:28:00;25.37;;;11.30;;
11384;SDS011;5747;56.748;13.882;2024-01-30T12:30:28;28.17;;;11.47;;
11384;SDS011;5747;56.748;13.882;2024-01-30T12:32:57;27.30;;;12.13;;
11384;SDS011;5747;56.748;13.882;2024-01-30T12:35:27;30.63;;;12.10;;
11384;SDS011;5747;56.748;13.882;2024-01-30T12:37:59;29.07;;;12.53;;
11384;SDS011;5747;56.748;13.882;2024-01-30T12:40:27;27.73;;;12.00;;
11384;SDS011;5747;56.748;13.882;2024-01-30T12:42:56;29.53;;;11.87;;
11384;SDS011;5747;56.748;13.882;2024-01-30T12:45:25;24.17;;;11.23;;
11384;SDS011;5747;56.748;13.882;2024-01-30T12:47:53;26.63;;;12.07;;
11384;SDS011;5747;56.748;13.882;2024-01-30T12:50:21;28.67;;;10.73;;
11384;SDS011;5747;56.748;13.882;2024-01-30T12:52:51;25.40;;;11.30;;
11384;SDS011;5747;56.748;13.882;2024-01-30T12:55:19;25.77;;;11.50;;
11384;SDS011;5747;56.748;13.882;2024-01-30T12:57:48;27.80;;;10.70;;
11384;SDS011;5747;56.748;13.882;2024-01-30T13:00:16;26.33;;;11.20;;
11384;SDS011;5747;56.748;13.882;2024-01-30T13:02:44;21.63;;;11.03;;
11384;SDS011;5747;56.748;13.882;2024-01-30T13:05:13;25.23;;;11.27;;
11384;SDS011;5747;56.748;13.882;2024-01-30T13:07:41;24.53;;;11.90;;
11384;SDS011;5747;56.748;13.882;2024-01-30T13:10:11;25.87;;;11.50;;
11384;SDS011;5747;56.748;13.882;2024-01-30T13:12:40;26.20;;;11.37;;
11384;SDS011;5747;56.748;13.882;2024-01-30T13:15:08;26.10;;;12.10;;
11384;SDS011;5747;56.748;13.882;2024-01-30T13:17:38;28.37;;;12.23;;
11384;SDS011;5747;56.748;13.882;2024-01-30T13:20:06;24.27;;;10.77;;
11384;SDS011;5747;56.748;13.882;2024-01-30T13:22:38;30.87;;;11.93;;
11384;SDS011;5747;56.748;13.882;2024-01-30T13:25:06;25.03;;;12.33;;
11384;SDS011;5747;56.748;13.882;2024-01-30T13:27:36;29.90;;;11.67;;
11384;SDS011;5747;56.748;13.882;2024-01-30T13:30:06;25.10;;;11.00;;
11384;SDS011;5747;56.748;13.882;2024-01-30T13:32:36;28.93;;;12.57;;
11384;SDS011;5747;56.748;13.882;2024-01-30T13:35:04;26.70;;;12.57;;
11384;SDS011;5747;56.748;13.882;2024-01-30T13:37:33;28.67;;;12.37;;
11384;SDS011;5747;56.748;13.882;2024-01-30T13:40:02;27.07;;;12.03;;
11384;SDS011;5747;56.748;13.882;2024-01-30T13:42:38;29.10;;;13.63;;
11384;SDS011;5747;56.748;13.882;2024-01-30T13:45:06;31.67;;;13.00;;
11384;SDS011;5747;56.748;13.882;2024-01-30T13:47:37;31.47;;;12.77;;
11384;SDS011;5747;56.748;13.882;2024-01-30T13:50:05;31.57;;;12.93;;
11384;SDS011;5747;56.748;13.882;2024-01-30T13:52:34;28.27;;;12.67;;
11384;SDS011;5747;56.748;13.882;2024-01-30T13:55:10;25.90;;;12.30;;
11384;SDS011;5747;56.748;13.882;2024-01-30T13:57:40;29.87;;;13.00;;
11384;SDS011;5747;56.748;13.882;2024-01-30T14:00:09;30.47;;;12.10;;
11384;SDS011;5747;56.748;13.882;2024-01-30T14:02:39;31.30;;;12.93;;
11384;SDS011;5747;56.748;13.882;2024-01-30T14:05:07;31.47;;;13.67;;
11384;SDS011;5747;56.748;13.882;2024-01-30T14:07:36;27.90;;;12.47;;
11384;SDS011;5747;56.748;13.882;2024-01-30T14:10:07;34.50;;;13.57;;
11384;SDS011;5747;56.748;13.882;2024-01-30T14:12:42;34.40;;;14.47;;
11384;SDS011;5747;56.748;13.882;2024-01-30T14:15:11;34.03;;;13.80;;
11384;SDS011;5747;56.748;13.882;2024-01-30T14:17:53;37.17;;;13.63;;
11384;SDS011;5747;56.748;13.882;2024-01-30T14:20:22;35.07;;;14.37;;
11384;SDS011;5747;56.748;13.882;2024-01-30T14:22:51;34.77;;;13.83;;
11384;SDS011;5747;56.748;13.882;2024-01-30T14:25:19;35.93;;;13.40;;
11384;SDS011;5747;56.748;13.882;2024-01-30T14:27:49;39.00;;;14.47;;
11384;SDS011;5747;56.748;13.882;2024-01-30T14:30:17;38.20;;;14.17;;
11384;SDS011;5747;56.748;13.882;2024-01-30T14:32:46;45.13;;;13.97;;
11384;SDS011;5747;56.748;13.882;2024-01-30T14:35:15;40.10;;;15.17;;
11384;SDS011;5747;56.748;13.882;2024-01-30T14:37:44;40.20;;;13.40;;
11384;SDS011;5747;56.748;13.882;2024-01-30T14:40:12;35.07;;;12.87;;
11384;SDS011;5747;56.748;13.882;2024-01-30T14:42:40;43.30;;;14.40;;